createdAt,value
2022-12-06T00:01:56.488Z,4.91
2022-12-06T00:04:59.510Z,4.91
2022-12-06T00:08:02.356Z,5.08
2022-12-06T00:11:14.205Z,4.92
2022-12-06T00:14:16.977Z,4.86
2022-12-06T00:17:19.970Z,4.91
2022-12-06T00:20:22.568Z,4.87
2022-12-06T00:23:30.212Z,5.03
2022-12-06T00:26:39.854Z,4.98
2022-12-06T00:29:42.791Z,4.89
2022-12-06T00:32:45.351Z,4.98
2022-12-06T00:35:56.072Z,4.86
2022-12-06T00:39:05.235Z,4.80
2022-12-06T00:42:08.076Z,4.74
2022-12-06T00:45:10.991Z,4.81
2022-12-06T00:48:13.857Z,4.83
2022-12-06T00:51:18.018Z,4.81
2022-12-06T00:54:20.968Z,4.76
2022-12-06T00:57:23.630Z,4.67
2022-12-06T01:00:27.440Z,4.93
2022-12-06T01:03:34.956Z,4.97
2022-12-06T01:06:38.486Z,4.80
2022-12-06T01:09:42.567Z,4.71
2022-12-06T01:12:45.708Z,4.64
2022-12-06T01:15:48.301Z,4.67
2022-12-06T01:18:59.528Z,4.60
2022-12-06T01:22:02.131Z,4.62
2022-12-06T01:25:05.464Z,4.59
2022-12-06T01:28:08.118Z,4.50
2022-12-06T01:31:11.266Z,4.59
2022-12-06T01:34:17.143Z,4.49
2022-12-06T01:37:20.110Z,4.51
2022-12-06T01:40:22.674Z,4.50
2022-12-06T01:43:36.355Z,4.65
2022-12-06T01:46:45.477Z,4.58
2022-12-06T01:50:04.442Z,4.60
2022-12-06T01:53:10.935Z,4.62
2022-12-06T01:56:14.015Z,4.61
2022-12-06T01:59:17.443Z,4.60
2022-12-06T02:02:20.798Z,4.56
2022-12-06T02:05:25.472Z,4.45
2022-12-06T02:08:29.573Z,4.39
2022-12-06T02:11:35.512Z,4.42
2022-12-06T02:14:38.669Z,4.40
2022-12-06T02:17:50.130Z,4.48
2022-12-06T02:21:16.428Z,4.46
2022-12-06T02:24:40.711Z,4.38
2022-12-06T02:28:18.938Z,4.42
2022-12-06T02:31:35.098Z,4.40
2022-12-06T02:34:46.933Z,4.39
2022-12-06T02:37:52.934Z,4.22
2022-12-06T02:41:01.108Z,4.24
2022-12-06T02:44:08.048Z,4.29
2022-12-06T02:47:12.950Z,4.21
2022-12-06T02:50:24.858Z,4.22
2022-12-06T02:53:31.167Z,4.35
2022-12-06T02:56:35.291Z,4.27
2022-12-06T02:59:38.246Z,4.30
2022-12-06T03:02:41.847Z,4.28
2022-12-06T03:06:22.789Z,4.23
2022-12-06T03:09:34.935Z,4.27
2022-12-06T03:12:52.411Z,4.18
2022-12-06T03:16:00.961Z,4.26
2022-12-06T03:19:16.122Z,4.18
2022-12-06T03:22:36.931Z,4.30
2022-12-06T03:25:44.503Z,4.11
2022-12-06T03:28:50.440Z,4.25
2022-12-06T03:31:55.412Z,4.31
2022-12-06T03:35:03.783Z,4.37
2022-12-06T03:38:16.077Z,4.15
2022-12-06T03:41:23.823Z,4.29
2022-12-06T03:44:26.877Z,4.17
2022-12-06T03:48:10.855Z,4.26
2022-12-06T03:51:20.579Z,4.24
2022-12-06T03:54:23.602Z,4.23
2022-12-06T03:57:26.191Z,4.25
2022-12-06T04:00:29.647Z,4.32
2022-12-06T04:03:32.550Z,4.29
2022-12-06T04:06:35.276Z,4.43
2022-12-06T04:09:56.485Z,4.46
2022-12-06T04:13:02.261Z,4.41
2022-12-06T04:16:25.587Z,4.45
2022-12-06T04:19:28.196Z,4.47
2022-12-06T04:22:49.875Z,4.53
2022-12-06T04:25:52.436Z,4.69
2022-12-06T04:29:14.042Z,4.66
2022-12-06T04:32:35.739Z,4.45
2022-12-06T04:35:57.380Z,4.50
2022-12-06T04:39:00.270Z,4.63
2022-12-06T04:42:22.491Z,4.66
2022-12-06T04:45:25.197Z,4.68
2022-12-06T04:48:28.076Z,4.49
2022-12-06T04:51:30.714Z,4.52
2022-12-06T04:54:34.654Z,4.72
2022-12-06T04:57:37.269Z,4.67
2022-12-06T05:00:44.692Z,4.56
2022-12-06T05:03:47.382Z,4.74
2022-12-06T05:06:50.355Z,4.69
2022-12-06T05:09:53.043Z,4.69
2022-12-06T05:12:56.158Z,4.83
2022-12-06T05:16:01.278Z,4.82
2022-12-06T05:19:04.909Z,4.64
2022-12-06T05:22:07.543Z,4.64
2022-12-06T05:25:10.486Z,4.63
2022-12-06T05:28:13.021Z,4.54
2022-12-06T05:31:17.469Z,4.58
2022-12-06T05:34:20.057Z,4.70
2022-12-06T05:37:23.207Z,4.69
2022-12-06T05:40:26.112Z,4.68
2022-12-06T05:43:29.611Z,4.54
2022-12-06T05:46:32.184Z,4.54
2022-12-06T05:49:35.079Z,4.67
2022-12-06T05:52:37.692Z,4.62
2022-12-06T05:55:40.918Z,4.80
2022-12-06T05:58:43.651Z,4.80
2022-12-06T06:01:46.634Z,5.15
2022-12-06T06:04:49.645Z,5.51
2022-12-06T06:07:52.315Z,5.04
2022-12-06T06:10:55.942Z,5.16
2022-12-06T06:13:58.649Z,5.41
2022-12-06T06:17:02.008Z,5.16
2022-12-06T06:20:06.504Z,5.32
2022-12-06T06:23:11.722Z,5.47
2022-12-06T06:26:14.926Z,5.87
2022-12-06T06:29:17.812Z,6.22
2022-12-06T06:32:21.080Z,6.69
2022-12-06T06:35:25.064Z,6.11
2022-12-06T06:38:27.792Z,5.82
2022-12-06T06:41:31.002Z,6.08
2022-12-06T06:44:33.641Z,5.81
2022-12-06T06:47:36.839Z,5.86
2022-12-06T06:50:39.688Z,5.74
2022-12-06T06:53:42.791Z,5.76
2022-12-06T06:56:49.725Z,5.83
2022-12-06T06:59:53.064Z,5.80
2022-12-06T07:02:55.750Z,5.57
2022-12-06T07:06:08.608Z,5.85
2022-12-06T07:09:11.450Z,5.83
2022-12-06T07:12:15.382Z,5.87
2022-12-06T07:15:18.207Z,5.76
2022-12-06T07:18:22.651Z,5.63
2022-12-06T07:21:25.545Z,5.71
2022-12-06T07:24:28.440Z,5.67
2022-12-06T07:27:36.877Z,5.64
2022-12-06T07:30:39.919Z,5.79
2022-12-06T07:33:44.194Z,6.23
2022-12-06T07:36:47.147Z,6.01
2022-12-06T07:39:50.022Z,6.08
2022-12-06T07:43:11.639Z,6.11
2022-12-06T07:46:14.441Z,6.04
2022-12-06T07:49:18.412Z,5.75
2022-12-06T07:52:21.359Z,5.73
2022-12-06T07:55:24.335Z,5.68
2022-12-06T07:58:27.005Z,5.86
2022-12-06T08:01:30.341Z,5.82
2022-12-06T08:04:33.259Z,5.98
2022-12-06T08:07:36.011Z,5.80
2022-12-06T08:10:38.999Z,5.89
2022-12-06T08:13:41.570Z,5.95
2022-12-06T08:16:44.489Z,6.00
2022-12-06T08:19:47.142Z,6.30
2022-12-06T08:22:50.700Z,6.39
2022-12-06T08:26:05.263Z,6.50
2022-12-06T08:29:08.253Z,6.40
2022-12-06T08:32:11.013Z,6.54
2022-12-06T08:35:13.895Z,6.63
2022-12-06T08:38:17.165Z,6.90
2022-12-06T08:41:39.522Z,6.53
2022-12-06T08:44:42.116Z,6.31
2022-12-06T08:47:45.069Z,6.53
2022-12-06T08:50:47.740Z,6.47
2022-12-06T08:53:54.239Z,6.50
2022-12-06T08:56:56.994Z,6.43
2022-12-06T09:00:00.155Z,6.36
2022-12-06T09:03:03.019Z,6.32
2022-12-06T09:06:06.463Z,6.25
2022-12-06T09:09:11.186Z,6.12
2022-12-06T09:12:16.136Z,6.06
2022-12-06T09:15:18.671Z,6.07
2022-12-06T09:18:21.942Z,6.14
2022-12-06T09:21:28.886Z,6.22
2022-12-06T09:24:31.831Z,6.22
2022-12-06T09:27:34.454Z,6.23
2022-12-06T09:30:37.676Z,6.38
2022-12-06T09:33:40.397Z,6.58
2022-12-06T09:36:58.271Z,6.65
2022-12-06T09:40:03.817Z,6.56
2022-12-06T09:43:14.878Z,6.63
2022-12-06T09:46:36.029Z,6.52
2022-12-06T09:50:00.919Z,6.62
2022-12-06T09:53:49.098Z,6.60
2022-12-06T09:57:00.426Z,6.46
2022-12-06T10:00:11.610Z,6.57
2022-12-06T10:03:56.289Z,6.66
2022-12-06T10:07:24.786Z,7.13
2022-12-06T10:11:05.369Z,6.97
2022-12-06T10:14:19.797Z,6.80
2022-12-06T10:17:52.067Z,6.92
2022-12-06T10:21:01.377Z,6.88
2022-12-06T10:24:42.446Z,6.99
2022-12-06T10:28:06.312Z,6.82
2022-12-06T10:31:27.267Z,6.96
2022-12-06T10:36:38.807Z,7.52
2022-12-06T10:38:19.498Z,7.65
2022-12-06T10:41:37.803Z,7.38
2022-12-06T10:44:46.183Z,7.51
2022-12-06T10:47:49.827Z,7.35
2022-12-06T10:51:01.853Z,7.66
2022-12-06T10:54:18.541Z,7.85
2022-12-06T10:57:30.922Z,7.73
2022-12-06T11:00:55.287Z,7.91
2022-12-06T11:04:04.237Z,7.94
2022-12-06T11:07:20.811Z,7.82
2022-12-06T11:10:27.410Z,8.20
2022-12-06T11:13:48.122Z,8.47
2022-12-06T11:17:14.031Z,8.83
2022-12-06T11:20:47.981Z,8.62
2022-12-06T11:23:50.551Z,8.51
2022-12-06T11:27:02.687Z,8.48
2022-12-06T11:30:20.215Z,8.20
2022-12-06T11:33:32.753Z,7.83
2022-12-06T11:36:35.555Z,8.11
2022-12-06T11:39:39.685Z,8.03
2022-12-06T11:42:42.390Z,8.16
2022-12-06T11:45:46.616Z,7.94
2022-12-06T11:48:50.249Z,8.03
2022-12-06T11:51:54.563Z,7.97
2022-12-06T11:55:00.556Z,7.83
2022-12-06T11:58:27.078Z,8.22
2022-12-06T12:01:50.222Z,8.08
2022-12-06T12:04:56.434Z,8.74
2022-12-06T12:08:19.989Z,8.71
2022-12-06T12:11:26.456Z,8.71
2022-12-06T12:14:36.339Z,8.58
2022-12-06T12:17:50.152Z,8.70
2022-12-06T12:20:53.651Z,8.10
2022-12-06T12:23:57.859Z,8.24
2022-12-06T12:27:00.523Z,8.40
2022-12-06T12:30:19.870Z,8.08
2022-12-06T12:33:24.069Z,8.40
2022-12-06T12:36:29.248Z,8.12
2022-12-06T12:39:38.877Z,8.11
2022-12-06T12:42:42.702Z,8.45
2022-12-06T12:46:10.401Z,8.14
2022-12-06T12:49:23.306Z,8.06
2022-12-06T12:52:38.879Z,8.20
2022-12-06T12:55:42.273Z,7.57
2022-12-06T12:58:48.921Z,8.23
2022-12-06T13:01:56.595Z,7.95
2022-12-06T13:05:32.532Z,8.13
2022-12-06T13:08:39.417Z,8.78
2022-12-06T13:11:48.340Z,8.92
2022-12-06T13:14:58.206Z,8.77
2022-12-06T13:18:11.826Z,8.48
2022-12-06T13:21:24.270Z,8.90
2022-12-06T13:24:31.559Z,8.65
2022-12-06T13:27:41.700Z,7.86
2022-12-06T13:30:45.772Z,8.62
2022-12-06T13:34:00.355Z,8.50
2022-12-06T13:37:03.397Z,8.41
2022-12-06T13:40:27.045Z,8.53
2022-12-06T13:43:29.617Z,8.44
2022-12-06T13:46:33.507Z,8.46
2022-12-06T13:49:48.628Z,8.37
2022-12-06T13:52:53.995Z,8.20
2022-12-06T13:56:22.522Z,8.14
2022-12-06T13:59:25.686Z,8.08
2022-12-06T14:02:44.605Z,8.09
2022-12-06T14:09:00.388Z,8.21
2022-12-06T14:12:16.904Z,8.25
2022-12-06T14:15:20.364Z,8.28
2022-12-06T14:18:26.520Z,8.15
2022-12-06T14:21:35.952Z,8.04
2022-12-06T14:24:42.164Z,7.82
2022-12-06T14:27:47.848Z,7.59
2022-12-06T14:30:51.321Z,7.49
2022-12-06T14:33:55.729Z,7.37
2022-12-06T14:37:00.870Z,7.24
2022-12-06T14:40:44.567Z,7.03
2022-12-06T14:43:47.611Z,6.77
2022-12-06T14:46:50.557Z,6.41
2022-12-06T14:50:20.612Z,6.24
2022-12-06T14:53:29.328Z,6.02
2022-12-06T14:56:35.457Z,5.97
2022-12-06T15:03:08.381Z,5.79
2022-12-06T15:06:16.322Z,5.62
2022-12-06T15:09:21.919Z,5.61
2022-12-06T15:12:46.742Z,5.45
2022-12-06T15:16:09.145Z,5.29
2022-12-06T15:19:14.379Z,5.16
2022-12-06T15:22:25.174Z,5.04
2022-12-06T15:25:28.299Z,4.89
2022-12-06T15:28:31.468Z,5.06
2022-12-06T15:31:36.044Z,4.86
2022-12-06T15:34:39.003Z,4.85
2022-12-06T15:37:47.275Z,4.70
2022-12-06T15:40:55.193Z,4.60
2022-12-06T15:43:57.821Z,4.51
2022-12-06T15:47:00.711Z,4.33
2022-12-06T15:50:04.433Z,4.30
2022-12-06T15:53:09.696Z,4.34
2022-12-06T15:56:18.260Z,4.20
2022-12-06T15:59:21.551Z,4.02
2022-12-06T16:02:24.278Z,4.00
2022-12-06T16:05:27.307Z,3.93
2022-12-06T16:08:29.947Z,3.74
2022-12-06T16:11:33.011Z,3.73
2022-12-06T16:14:35.647Z,3.60
2022-12-06T16:17:38.547Z,3.55
2022-12-06T16:20:41.497Z,3.38
2022-12-06T16:24:18.039Z,3.35
2022-12-06T16:27:20.701Z,3.33
2022-12-06T16:30:34.590Z,3.33
2022-12-06T16:33:37.363Z,3.19
2022-12-06T16:37:00.657Z,3.14
2022-12-06T16:40:03.478Z,3.01
2022-12-06T16:43:06.406Z,3.18
2022-12-06T16:46:36.705Z,2.98
2022-12-06T16:49:48.802Z,2.81
2022-12-06T16:52:52.450Z,2.62
2022-12-06T16:55:55.505Z,2.72
2022-12-06T16:58:58.809Z,2.61
2022-12-06T17:02:05.913Z,2.59
2022-12-06T17:05:18.653Z,2.56
2022-12-06T17:08:22.295Z,2.53
2022-12-06T17:11:46.999Z,2.52
2022-12-06T17:14:50.478Z,2.51
2022-12-06T17:17:53.259Z,2.45
2022-12-06T17:20:56.876Z,2.57
2022-12-06T17:24:05.306Z,2.59
2022-12-06T17:27:09.576Z,2.33
2022-12-06T17:30:17.850Z,2.49
2022-12-06T17:33:21.065Z,2.53
2022-12-06T17:36:25.339Z,2.34
2022-12-06T17:39:28.275Z,2.32
2022-12-06T17:42:49.200Z,2.26
2022-12-06T17:45:52.580Z,2.16
2022-12-06T17:48:57.446Z,2.25
2022-12-06T17:52:00.630Z,2.03
2022-12-06T17:55:04.524Z,1.83
2022-12-06T17:58:07.636Z,1.86
2022-12-06T18:01:10.291Z,1.69
2022-12-06T18:04:14.300Z,1.61
2022-12-06T18:07:17.827Z,1.89
2022-12-06T18:10:21.057Z,1.80
2022-12-06T18:13:23.755Z,1.61
2022-12-06T18:16:32.681Z,1.66
2022-12-06T18:19:35.919Z,1.71
2022-12-06T18:22:38.935Z,1.75
2022-12-06T18:25:41.866Z,1.78
2022-12-06T18:28:55.878Z,1.79
2022-12-06T18:31:59.224Z,1.78
2022-12-06T18:35:02.847Z,1.79
2022-12-06T18:38:05.973Z,1.87
2022-12-06T18:41:14.623Z,1.89
2022-12-06T18:44:17.215Z,1.83
2022-12-06T18:47:20.259Z,2.13
2022-12-06T18:50:22.937Z,1.96
2022-12-06T18:53:26.105Z,2.03
2022-12-06T18:56:32.242Z,1.97
2022-12-06T18:59:37.709Z,1.70
2022-12-06T19:02:40.735Z,1.58
2022-12-06T19:06:02.357Z,1.65
2022-12-06T19:09:10.197Z,1.47
2022-12-06T19:12:13.199Z,1.82
2022-12-06T19:15:17.304Z,1.79
2022-12-06T19:18:20.351Z,1.59
2022-12-06T19:21:24.601Z,1.33
2022-12-06T19:24:29.412Z,1.33
2022-12-06T19:27:32.587Z,1.26
2022-12-06T19:30:35.763Z,1.10
2022-12-06T19:33:43.303Z,1.05
2022-12-06T19:36:48.461Z,1.07
2022-12-06T19:39:51.964Z,1.18
2022-12-06T19:43:13.908Z,1.31
2022-12-06T19:46:21.546Z,1.31
2022-12-06T19:49:28.595Z,1.47
2022-12-06T19:52:31.584Z,1.29
2022-12-06T19:55:34.766Z,1.07
2022-12-06T19:58:39.507Z,0.90
2022-12-06T20:01:44.957Z,1.00
2022-12-06T20:04:48.804Z,1.40
2022-12-06T20:07:51.378Z,1.40
2022-12-06T20:10:54.399Z,1.21
2022-12-06T20:14:04.781Z,0.98
2022-12-06T20:17:15.750Z,0.85
2022-12-06T20:20:18.589Z,0.90
2022-12-06T20:23:22.775Z,0.76
2022-12-06T20:26:29.475Z,0.76
2022-12-06T20:29:32.859Z,0.66
2022-12-06T20:32:35.450Z,0.58
2022-12-06T20:35:38.795Z,0.59
2022-12-06T20:38:42.806Z,0.76
2022-12-06T20:41:45.926Z,0.80
2022-12-06T20:44:49.027Z,0.82
2022-12-06T20:47:53.380Z,0.72
2022-12-06T20:50:59.409Z,0.65
2022-12-06T20:54:05.819Z,0.79
2022-12-06T20:57:08.607Z,0.62
2022-12-06T21:00:12.921Z,0.72
2022-12-06T21:03:16.048Z,0.74
2022-12-06T21:06:20.719Z,0.56
2022-12-06T21:09:25.432Z,0.52
2022-12-06T21:12:28.735Z,0.56
2022-12-06T21:15:33.015Z,0.46
2022-12-06T21:18:36.245Z,0.42
2022-12-06T21:21:40.832Z,0.76
2022-12-06T21:24:44.085Z,0.88
2022-12-06T21:27:46.914Z,0.62
2022-12-06T21:30:54.233Z,0.54
2022-12-06T21:33:57.664Z,0.46
2022-12-06T21:37:00.634Z,0.44
2022-12-06T21:40:04.322Z,0.39
2022-12-06T21:43:08.178Z,0.26
2022-12-06T21:46:22.934Z,0.23
2022-12-06T21:49:26.047Z,0.33
2022-12-06T21:52:28.743Z,0.35
2022-12-06T21:55:31.777Z,0.33
2022-12-06T21:58:35.939Z,0.28
2022-12-06T22:01:39.244Z,0.16
2022-12-06T22:04:42.178Z,0.48
2022-12-06T22:07:44.904Z,0.53
2022-12-06T22:10:48.011Z,0.66
2022-12-06T22:13:50.688Z,0.36
2022-12-06T22:16:53.599Z,0.13
2022-12-06T22:19:56.258Z,0.11
2022-12-06T22:23:00.488Z,0.10
2022-12-06T22:26:08.247Z,0.28
2022-12-06T22:29:11.158Z,0.44
2022-12-06T22:32:13.810Z,0.43
2022-12-06T22:35:17.148Z,0.38
2022-12-06T22:38:19.785Z,0.46
2022-12-06T22:41:23.815Z,0.48
2022-12-06T22:44:26.496Z,0.39
2022-12-06T22:47:29.434Z,0.49
2022-12-06T22:50:32.046Z,0.24
2022-12-06T22:53:35.411Z,0.11
2022-12-06T22:56:40.482Z,0.54
2022-12-06T22:59:43.329Z,0.41
2022-12-06T23:02:46.134Z,0.37
2022-12-06T23:05:57.236Z,0.14
2022-12-06T23:09:00.042Z,0.13
2022-12-06T23:12:03.519Z,0.05
2022-12-06T23:15:06.936Z,-0.10
2022-12-06T23:18:09.846Z,-0.14
2022-12-06T23:21:12.589Z,0.07
2022-12-06T23:24:16.022Z,0.00
2022-12-06T23:27:18.653Z,0.11
2022-12-06T23:30:21.805Z,0.01
2022-12-06T23:33:24.423Z,-0.23
2022-12-06T23:36:30.060Z,-0.37
2022-12-06T23:39:32.603Z,-0.41
2022-12-06T23:42:35.516Z,-0.49
2022-12-06T23:45:38.192Z,-0.16
2022-12-06T23:48:41.967Z,-0.10
2022-12-06T23:51:45.458Z,0.03
2022-12-06T23:54:48.367Z,0.11
2022-12-06T23:57:50.991Z,-0.01
